createdAt,value
2022-11-28T00:01:27.716Z,32.95
2022-11-28T00:03:55.645Z,62.53
2022-11-28T00:06:23.845Z,44.83
2022-11-28T00:08:51.763Z,46.50
2022-11-28T00:11:19.834Z,39.35
2022-11-28T00:13:47.843Z,39.35
2022-11-28T00:16:17.700Z,38.50
2022-11-28T00:18:45.626Z,35.40
2022-11-28T00:21:14.608Z,35.25
2022-11-28T00:23:46.462Z,35.80
2022-11-28T00:26:19.327Z,34.83
2022-11-28T00:28:47.368Z,34.05
2022-11-28T00:31:16.167Z,35.40
2022-11-28T00:33:44.324Z,35.70
2022-11-28T00:36:12.160Z,32.88
2022-11-28T00:38:41.282Z,36.83
2022-11-28T00:41:14.372Z,34.63
2022-11-28T00:43:43.088Z,34.78
2022-11-28T00:46:11.436Z,34.85
2022-11-28T00:48:59.660Z,32.53
2022-11-28T00:51:29.347Z,34.13
2022-11-28T00:53:58.868Z,35.05
2022-11-28T00:56:31.818Z,33.88
2022-11-28T00:59:00.052Z,34.22
2022-11-28T01:01:32.578Z,33.63
2022-11-28T01:04:02.021Z,35.75
2022-11-28T01:06:32.403Z,33.00
2022-11-28T01:09:01.544Z,35.53
2022-11-28T01:11:29.584Z,36.20
2022-11-28T01:14:02.378Z,35.97
2022-11-28T01:16:30.635Z,36.00
2022-11-28T01:18:58.488Z,35.55
2022-11-28T01:21:26.821Z,35.58
2022-11-28T01:23:54.688Z,34.33
2022-11-28T01:26:27.224Z,35.97
2022-11-28T01:28:55.160Z,36.25
2022-11-28T01:31:24.714Z,36.33
2022-11-28T01:33:52.699Z,36.22
2022-11-28T01:36:20.735Z,37.42
2022-11-28T01:38:48.864Z,37.60
2022-11-28T01:41:17.671Z,36.97
2022-11-28T01:44:04.689Z,38.33
2022-11-28T01:46:33.542Z,40.13
2022-11-28T01:49:14.308Z,39.22
2022-11-28T01:51:44.691Z,40.03
2022-11-28T01:54:13.248Z,41.17
2022-11-28T01:56:47.814Z,39.70
2022-11-28T01:59:16.129Z,40.10
2022-11-28T02:01:44.951Z,40.60
2022-11-28T02:04:14.162Z,42.25
2022-11-28T02:06:42.337Z,40.63
2022-11-28T02:09:14.513Z,40.67
2022-11-28T02:27:32.523Z,38.47
2022-11-28T02:30:03.272Z,39.53
2022-11-28T02:32:55.700Z,40.70
2022-11-28T02:35:58.626Z,39.33
2022-11-28T02:38:54.075Z,37.05
2022-11-28T02:41:43.076Z,38.05
2022-11-28T02:44:12.938Z,38.35
2022-11-28T02:47:06.932Z,37.92
2022-11-28T02:49:42.763Z,39.70
2022-11-28T02:52:18.077Z,36.70
2022-11-28T02:54:46.377Z,38.25
2022-11-28T02:57:16.949Z,40.17
2022-11-28T02:59:47.639Z,37.92
2022-11-28T03:02:29.527Z,38.97
2022-11-28T03:05:32.271Z,39.25
2022-11-28T03:08:32.219Z,38.03
2022-11-28T03:11:14.429Z,40.63
2022-11-28T03:14:11.756Z,39.35
2022-11-28T03:16:57.221Z,41.28
2022-11-28T03:19:31.183Z,38.35
2022-11-28T03:22:12.411Z,38.25
2022-11-28T03:24:49.580Z,37.85
2022-11-28T03:27:45.319Z,37.50
2022-11-28T03:30:41.247Z,37.10
2022-11-28T03:33:09.140Z,34.47
2022-11-28T03:35:39.895Z,37.83
2022-11-28T03:38:15.854Z,35.88
2022-11-28T03:40:46.105Z,34.45
2022-11-28T03:43:19.675Z,33.70
2022-11-28T03:45:49.585Z,35.05
2022-11-28T03:48:24.095Z,34.88
2022-11-28T03:51:05.988Z,36.63
2022-11-28T03:53:42.974Z,37.50
2022-11-28T03:56:17.855Z,36.35
2022-11-28T03:59:23.186Z,38.10
2022-11-28T04:02:02.125Z,36.10
2022-11-28T04:04:37.530Z,32.38
2022-11-28T04:07:24.500Z,24.02
2022-11-28T04:10:00.899Z,22.38
2022-11-28T04:12:50.215Z,17.35
2022-11-28T04:15:19.938Z,13.48
2022-11-28T04:18:04.016Z,12.38
2022-11-28T04:20:52.529Z,14.20
2022-11-28T04:23:20.666Z,12.43
2022-11-28T04:26:02.343Z,11.98
2022-11-28T04:28:31.404Z,11.45
2022-11-28T04:30:59.539Z,11.88
2022-11-28T04:33:27.372Z,10.75
2022-11-28T04:35:55.921Z,10.80
2022-11-28T04:38:24.201Z,11.73
2022-11-28T04:41:02.749Z,10.90
2022-11-28T04:43:32.790Z,11.10
2022-11-28T04:46:04.752Z,10.18
2022-11-28T04:48:34.606Z,11.82
2022-11-28T04:51:24.287Z,11.35
2022-11-28T04:54:07.433Z,13.07
2022-11-28T04:56:52.396Z,14.63
2022-11-28T04:59:20.471Z,15.13
2022-11-28T05:01:48.377Z,15.65
2022-11-28T05:04:17.585Z,15.05
2022-11-28T05:06:45.809Z,14.48
2022-11-28T05:09:13.943Z,15.10
2022-11-28T05:11:44.142Z,15.18
2022-11-28T05:14:12.008Z,16.67
2022-11-28T05:16:39.851Z,14.23
2022-11-28T05:19:07.694Z,16.73
2022-11-28T05:21:35.570Z,14.98
2022-11-28T05:24:22.559Z,14.68
2022-11-28T05:27:08.881Z,15.98
2022-11-28T05:29:39.744Z,16.08
2022-11-28T05:32:07.732Z,15.73
2022-11-28T05:34:36.212Z,15.80
2022-11-28T05:37:04.850Z,16.95
2022-11-28T05:39:32.829Z,13.25
2022-11-28T05:42:00.733Z,15.18
2022-11-28T05:44:28.578Z,16.80
2022-11-28T05:46:56.428Z,14.60
2022-11-28T05:49:25.721Z,15.40
2022-11-28T05:51:54.009Z,15.00
2022-11-28T05:54:22.215Z,15.18
2022-11-28T05:56:52.668Z,16.42
2022-11-28T05:59:20.710Z,16.20
2022-11-28T06:01:48.556Z,16.45
2022-11-28T06:04:16.530Z,18.92
2022-11-28T06:06:44.550Z,19.10
2022-11-28T06:09:12.589Z,16.65
2022-11-28T06:11:41.034Z,18.33
2022-11-28T06:14:09.789Z,14.93
2022-11-28T06:16:38.087Z,17.90
2022-11-28T06:19:06.089Z,16.70
2022-11-28T06:21:34.691Z,18.00
2022-11-28T06:24:02.530Z,18.05
2022-11-28T06:26:30.821Z,18.42
2022-11-28T06:28:59.185Z,20.67
2022-11-28T06:31:31.359Z,19.92
2022-11-28T06:34:05.279Z,19.15
2022-11-28T06:36:33.107Z,19.10
2022-11-28T06:39:00.884Z,19.85
2022-11-28T06:41:28.916Z,19.48
2022-11-28T06:43:57.503Z,18.73
2022-11-28T06:46:25.527Z,19.92
2022-11-28T06:48:53.781Z,21.40
2022-11-28T06:51:22.198Z,22.42
2022-11-28T06:53:50.079Z,22.77
2022-11-28T06:56:19.447Z,23.55
2022-11-28T06:58:47.650Z,25.50
2022-11-28T07:01:18.414Z,24.48
2022-11-28T07:03:46.581Z,21.60
2022-11-28T07:06:17.390Z,19.55
2022-11-28T07:08:45.483Z,19.23
2022-11-28T07:11:14.653Z,21.17
2022-11-28T07:13:43.006Z,20.98
2022-11-28T07:16:14.244Z,21.27
2022-11-28T07:18:42.344Z,21.30
2022-11-28T07:21:10.420Z,24.20
2022-11-28T07:23:38.478Z,23.35
2022-11-28T07:26:06.620Z,22.40
2022-11-28T07:28:34.983Z,22.70
2022-11-28T07:31:14.295Z,22.75
2022-11-28T07:33:43.066Z,22.75
2022-11-28T09:58:43.288Z,29.50
2022-11-28T10:01:11.372Z,29.13
2022-11-28T10:04:03.529Z,29.60
2022-11-28T10:07:02.891Z,30.77
2022-11-28T10:09:38.627Z,25.35
2022-11-28T10:12:25.564Z,30.35
2022-11-28T10:15:27.021Z,27.23
2022-11-28T10:18:10.994Z,28.35
2022-11-28T10:20:42.110Z,29.73
2022-11-28T10:23:46.159Z,27.70
2022-11-28T10:26:17.643Z,28.35
2022-11-28T10:28:47.831Z,32.42
2022-11-28T10:31:28.029Z,30.73
2022-11-28T10:36:57.547Z,27.95
2022-11-28T10:39:26.458Z,30.38
2022-11-28T10:42:12.547Z,27.10
2022-11-28T10:45:00.172Z,29.63
2022-11-28T10:47:34.198Z,29.85
2022-11-28T10:50:08.973Z,30.58
2022-11-28T10:52:47.483Z,28.25
2022-11-28T10:55:30.510Z,27.83
2022-11-28T11:17:36.500Z,26.50
2022-11-28T11:20:29.409Z,23.48
2022-11-28T11:23:14.238Z,24.75
2022-11-28T11:25:58.649Z,27.45
2022-11-28T11:28:38.277Z,26.42
2022-11-28T11:31:15.082Z,25.80
2022-11-28T11:33:44.257Z,27.52
2022-11-28T11:36:28.710Z,28.58
2022-11-28T11:39:07.100Z,26.85
2022-11-28T11:41:36.179Z,27.73
2022-11-28T11:44:15.918Z,28.35
2022-11-28T11:46:51.958Z,28.73
2022-11-28T11:49:48.257Z,33.20
2022-11-28T11:52:22.151Z,27.98
2022-11-28T11:54:59.040Z,25.83
2022-11-28T11:57:34.538Z,27.05
2022-11-28T12:00:21.915Z,25.23
2022-11-28T12:03:00.372Z,26.52
2022-11-28T12:05:46.698Z,26.80
2022-11-28T12:08:35.512Z,26.95
2022-11-28T12:11:46.595Z,28.40
2022-11-28T12:14:27.175Z,25.63
2022-11-28T12:17:19.452Z,30.10
2022-11-28T12:19:52.209Z,29.60
2022-11-28T12:22:54.560Z,30.35
2022-11-28T12:25:26.416Z,30.45
2022-11-28T12:28:11.494Z,28.83
2022-11-28T12:30:59.335Z,29.63
2022-11-28T12:33:54.328Z,30.73
2022-11-28T12:36:47.069Z,31.15
2022-11-28T12:39:18.758Z,30.70
2022-11-28T12:42:06.350Z,29.73
2022-11-28T12:44:48.750Z,31.50
2022-11-28T12:47:16.641Z,31.25
2022-11-28T12:49:59.536Z,31.55
2022-11-28T12:52:45.830Z,27.95
2022-11-28T12:55:26.192Z,29.55
2022-11-28T12:58:11.872Z,24.47
2022-11-28T13:00:58.704Z,30.67
